sensor_id;sensor_type;location;lat;lon;timestamp;pressure;altitude;pressure_sealevel;temperature;humidity
32330;BME280;18807;52.434;13.238;2022-10-16T00:05:00;100747.03;;;14.24;100.00
32330;BME280;18807;52.434;13.238;2022-10-16T00:12:35;100753.31;;;14.24;100.00
32330;BME280;18807;52.434;13.238;2022-10-16T00:20:08;100751.50;;;14.28;100.00
32330;BME280;18807;52.434;13.238;2022-10-16T00:27:43;100764.06;;;14.29;100.00
32330;BME280;18807;52.434;13.238;2022-10-16T00:35:17;100771.22;;;14.30;100.00
32330;BME280;18807;52.434;13.238;2022-10-16T00:42:52;100769.41;;;14.32;100.00
32330;BME280;18807;52.434;13.238;2022-10-16T00:50:26;100774.78;;;14.38;100.00
32330;BME280;18807;52.434;13.238;2022-10-16T00:58:03;100790.03;;;14.39;100.00
32330;BME280;18807;52.434;13.238;2022-10-16T01:05:41;100786.44;;;14.38;100.00
32330;BME280;18807;52.434;13.238;2022-10-16T01:13:23;100777.47;;;14.36;100.00
32330;BME280;18807;52.434;13.238;2022-10-16T01:21:01;100792.72;;;14.33;100.00
32330;BME280;18807;52.434;13.238;2022-10-16T01:28:40;100800.78;;;14.33;100.00
32330;BME280;18807;52.434;13.238;2022-10-16T01:36:18;100812.38;;;14.32;100.00
32330;BME280;18807;52.434;13.238;2022-10-16T01:43:58;100802.53;;;14.26;100.00
32330;BME280;18807;52.434;13.238;2022-10-16T01:51:37;100815.06;;;14.23;100.00
32330;BME280;18807;52.434;13.238;2022-10-16T01:59:16;100831.19;;;14.20;100.00
32330;BME280;18807;52.434;13.238;2022-10-16T02:06:50;100827.59;;;14.19;100.00
32330;BME280;18807;52.434;13.238;2022-10-16T02:14:26;100833.88;;;14.23;100.00
32330;BME280;18807;52.434;13.238;2022-10-16T02:22:04;100848.22;;;14.28;100.00
32330;BME280;18807;52.434;13.238;2022-10-16T02:29:43;100833.00;;;14.31;100.00
32330;BME280;18807;52.434;13.238;2022-10-16T02:37:22;100844.63;;;14.32;100.00
32330;BME280;18807;52.434;13.238;2022-10-16T02:44:57;100845.53;;;14.32;100.00
32330;BME280;18807;52.434;13.238;2022-10-16T02:52:31;100850.00;;;14.32;100.00
32330;BME280;18807;52.434;13.238;2022-10-16T03:00:09;100841.06;;;14.27;100.00
32330;BME280;18807;52.434;13.238;2022-10-16T03:07:45;100860.75;;;14.20;100.00
32330;BME280;18807;52.434;13.238;2022-10-16T03:15:20;100863.41;;;14.12;100.00
32330;BME280;18807;52.434;13.238;2022-10-16T03:22:53;100861.59;;;14.08;100.00
32330;BME280;18807;52.434;13.238;2022-10-16T03:30:28;100883.97;;;14.02;100.00
32330;BME280;18807;52.434;13.238;2022-10-16T03:38:02;100890.22;;;13.97;100.00
32330;BME280;18807;52.434;13.238;2022-10-16T03:45:37;100917.06;;;13.92;100.00
32330;BME280;18807;52.434;13.238;2022-10-16T03:53:12;100917.03;;;13.88;100.00
32330;BME280;18807;52.434;13.238;2022-10-16T04:00:47;100935.84;;;13.86;100.00
32330;BME280;18807;52.434;13.238;2022-10-16T04:08:21;100944.78;;;13.85;100.00
32330;BME280;18807;52.434;13.238;2022-10-16T04:15:56;100934.94;;;13.89;100.00
32330;BME280;18807;52.434;13.238;2022-10-16T04:23:30;100926.00;;;13.90;100.00
32330;BME280;18807;52.434;13.238;2022-10-16T04:31:06;100922.41;;;13.88;100.00
32330;BME280;18807;52.434;13.238;2022-10-16T04:38:40;100909.88;;;13.82;100.00
32330;BME280;18807;52.434;13.238;2022-10-16T04:46:15;100913.41;;;13.80;100.00
32330;BME280;18807;52.434;13.238;2022-10-16T04:53:49;100920.56;;;13.73;100.00
32330;BME280;18807;52.434;13.238;2022-10-16T05:01:25;100943.81;;;13.70;100.00
32330;BME280;18807;52.434;13.238;2022-10-16T05:08:58;100947.34;;;13.63;100.00
32330;BME280;18807;52.434;13.238;2022-10-16T05:16:34;100958.97;;;13.63;100.00
32330;BME280;18807;52.434;13.238;2022-10-16T05:24:07;100943.75;;;13.61;100.00
32330;BME280;18807;52.434;13.238;2022-10-16T05:31:43;100947.31;;;13.57;100.00
32330;BME280;18807;52.434;13.238;2022-10-16T05:39:16;100955.34;;;13.55;100.00
32330;BME280;18807;52.434;13.238;2022-10-16T05:46:51;100964.31;;;13.53;100.00
32330;BME280;18807;52.434;13.238;2022-10-16T05:54:25;100962.50;;;13.53;100.00
32330;BME280;18807;52.434;13.238;2022-10-16T06:02:00;100961.63;;;13.54;100.00
32330;BME280;18807;52.434;13.238;2022-10-16T06:09:33;100980.41;;;13.56;100.00
32330;BME280;18807;52.434;13.238;2022-10-16T06:17:08;100988.50;;;13.66;100.00
32330;BME280;18807;52.434;13.238;2022-10-16T06:24:42;100985.03;;;13.76;100.00
32330;BME280;18807;52.434;13.238;2022-10-16T06:32:17;101005.56;;;13.74;100.00
32330;BME280;18807;52.434;13.238;2022-10-16T06:39:51;101019.94;;;13.79;100.00
32330;BME280;18807;52.434;13.238;2022-10-16T06:47:27;101021.75;;;13.83;100.00
32330;BME280;18807;52.434;13.238;2022-10-16T06:55:00;101027.19;;;13.97;100.00
32330;BME280;18807;52.434;13.238;2022-10-16T07:02:36;101029.91;;;14.03;100.00
32330;BME280;18807;52.434;13.238;2022-10-16T07:10:10;101052.34;;;14.13;100.00
32330;BME280;18807;52.434;13.238;2022-10-16T07:17:45;101051.56;;;14.27;100.00
32330;BME280;18807;52.434;13.238;2022-10-16T07:25:19;101062.34;;;14.42;100.00
32330;BME280;18807;52.434;13.238;2022-10-16T07:32:54;101051.69;;;14.62;100.00
32330;BME280;18807;52.434;13.238;2022-10-16T07:40:27;101053.50;;;14.73;100.00
32330;BME280;18807;52.434;13.238;2022-10-16T07:48:02;101068.81;;;14.85;100.00
32330;BME280;18807;52.434;13.238;2022-10-16T07:55:36;101058.06;;;14.94;100.00
32330;BME280;18807;52.434;13.238;2022-10-16T08:03:12;101082.31;;;15.03;100.00
32330;BME280;18807;52.434;13.238;2022-10-16T08:10:45;101101.13;;;15.15;100.00
32330;BME280;18807;52.434;13.238;2022-10-16T08:18:20;101104.75;;;15.24;100.00
32330;BME280;18807;52.434;13.238;2022-10-16T08:25:55;101096.69;;;15.36;100.00
32330;BME280;18807;52.434;13.238;2022-10-16T08:33:31;101104.81;;;15.50;100.00
32330;BME280;18807;52.434;13.238;2022-10-16T08:41:20;101097.63;;;15.67;100.00
32330;BME280;18807;52.434;13.238;2022-10-16T08:48:59;101105.69;;;15.77;100.00
32330;BME280;18807;52.434;13.238;2022-10-16T08:56:33;101122.78;;;15.87;100.00
32330;BME280;18807;52.434;13.238;2022-10-16T09:04:39;101138.03;;;16.03;100.00
32330;BME280;18807;52.434;13.238;2022-10-16T09:12:20;101153.25;;;16.25;100.00
32330;BME280;18807;52.434;13.238;2022-10-16T09:20:20;101151.41;;;16.51;100.00
32330;BME280;18807;52.434;13.238;2022-10-16T09:27:56;101133.38;;;16.73;100.00
32330;BME280;18807;52.434;13.238;2022-10-16T09:35:36;101141.44;;;16.85;100.00
32330;BME280;18807;52.434;13.238;2022-10-16T09:43:21;101161.09;;;17.06;100.00
32330;BME280;18807;52.434;13.238;2022-10-16T09:51:00;101168.25;;;17.18;100.00
32330;BME280;18807;52.434;13.238;2022-10-16T09:58:34;101181.66;;;17.30;100.00
32330;BME280;18807;52.434;13.238;2022-10-16T10:06:18;101189.69;;;17.48;100.00
32330;BME280;18807;52.434;13.238;2022-10-16T10:14:03;101190.47;;;17.68;100.00
32330;BME280;18807;52.434;13.238;2022-10-16T10:21:39;101194.88;;;17.82;100.00
32330;BME280;18807;52.434;13.238;2022-10-16T10:29:26;101211.03;;;17.90;100.00
32330;BME280;18807;52.434;13.238;2022-10-16T10:37:10;101205.56;;;17.99;100.00
32330;BME280;18807;52.434;13.238;2022-10-16T10:45:17;101212.69;;;18.09;100.00
32330;BME280;18807;52.434;13.238;2022-10-16T10:52:59;101215.31;;;18.17;100.00
32330;BME280;18807;52.434;13.238;2022-10-16T11:00:42;101210.69;;;18.32;94.02
32330;BME280;18807;52.434;13.238;2022-10-16T11:08:26;101220.34;;;18.60;90.58
32330;BME280;18807;52.434;13.238;2022-10-16T11:16:09;101223.78;;;18.76;86.09
32330;BME280;18807;52.434;13.238;2022-10-16T11:23:52;101222.00;;;18.73;89.21
32330;BME280;18807;52.434;13.238;2022-10-16T11:31:33;101223.81;;;18.73;81.96
32330;BME280;18807;52.434;13.238;2022-10-16T11:39:19;101225.69;;;18.68;83.68
32330;BME280;18807;52.434;13.238;2022-10-16T11:46:59;101216.72;;;18.61;82.45
32330;BME280;18807;52.434;13.238;2022-10-16T11:54:59;101225.81;;;18.56;78.45
32330;BME280;18807;52.434;13.238;2022-10-16T12:02:40;101227.63;;;18.54;78.02
32330;BME280;18807;52.434;13.238;2022-10-16T12:10:24;101242.88;;;18.62;78.51
32330;BME280;18807;52.434;13.238;2022-10-16T12:18:00;101251.84;;;18.69;78.20
32330;BME280;18807;52.434;13.238;2022-10-16T12:25:36;101250.66;;;18.94;77.47
32330;BME280;18807;52.434;13.238;2022-10-16T12:33:22;101258.63;;;19.09;73.23
32330;BME280;18807;52.434;13.238;2022-10-16T12:41:01;101263.84;;;19.27;71.80
32330;BME280;18807;52.434;13.238;2022-10-16T12:48:37;101253.72;;;19.39;70.64
32330;BME280;18807;52.434;13.238;2022-10-16T12:56:40;101265.47;;;19.41;67.89
32330;BME280;18807;52.434;13.238;2022-10-16T13:12:38;101277.66;;;19.74;66.18
32330;BME280;18807;52.434;13.238;2022-10-16T13:20:21;101295.91;;;19.60;68.92
32330;BME280;18807;52.434;13.238;2022-10-16T13:28:00;101306.84;;;19.52;69.84
32330;BME280;18807;52.434;13.238;2022-10-16T13:35:35;101314.06;;;19.55;69.44
32330;BME280;18807;52.434;13.238;2022-10-16T13:43:11;101315.09;;;19.45;69.80
32330;BME280;18807;52.434;13.238;2022-10-16T13:50:45;101306.22;;;19.32;71.02
32330;BME280;18807;52.434;13.238;2022-10-16T13:58:20;101325.16;;;19.34;72.28
32330;BME280;18807;52.434;13.238;2022-10-16T14:05:54;101316.81;;;19.52;69.40
32330;BME280;18807;52.434;13.238;2022-10-16T14:13:31;101331.41;;;19.42;68.57
32330;BME280;18807;52.434;13.238;2022-10-16T14:21:12;101336.09;;;19.22;70.12
32330;BME280;18807;52.434;13.238;2022-10-16T14:29:01;101331.69;;;19.13;68.50
32330;BME280;18807;52.434;13.238;2022-10-16T14:36:40;101340.72;;;19.11;67.96
32330;BME280;18807;52.434;13.238;2022-10-16T14:44:17;101349.84;;;19.02;68.38
32330;BME280;18807;52.434;13.238;2022-10-16T14:51:51;101357.16;;;18.96;68.84
32330;BME280;18807;52.434;13.238;2022-10-16T14:59:29;101352.66;;;18.93;65.64
32330;BME280;18807;52.434;13.238;2022-10-16T15:07:03;101353.63;;;18.85;65.44
32330;BME280;18807;52.434;13.238;2022-10-16T15:14:39;101366.28;;;18.83;64.87
32330;BME280;18807;52.434;13.238;2022-10-16T15:22:12;101388.03;;;18.72;65.39
32330;BME280;18807;52.434;13.238;2022-10-16T15:29:47;101383.63;;;18.58;67.33
32330;BME280;18807;52.434;13.238;2022-10-16T15:37:21;101400.00;;;18.34;70.82
32330;BME280;18807;52.434;13.238;2022-10-16T15:44:56;101417.25;;;18.13;74.51
32330;BME280;18807;52.434;13.238;2022-10-16T15:52:30;101430.94;;;17.88;76.77
32330;BME280;18807;52.434;13.238;2022-10-16T16:00:07;101433.72;;;17.63;79.57
32330;BME280;18807;52.434;13.238;2022-10-16T16:07:42;101433.72;;;17.36;82.01
32330;BME280;18807;52.434;13.238;2022-10-16T16:15:17;101449.97;;;17.11;84.44
32330;BME280;18807;52.434;13.238;2022-10-16T16:22:51;101459.88;;;16.86;86.48
32330;BME280;18807;52.434;13.238;2022-10-16T16:30:27;101472.41;;;16.62;88.70
32330;BME280;18807;52.434;13.238;2022-10-16T16:38:01;101478.63;;;16.38;90.90
32330;BME280;18807;52.434;13.238;2022-10-16T16:45:36;101492.94;;;16.16;92.27
32330;BME280;18807;52.434;13.238;2022-10-16T16:53:10;101515.25;;;15.89;95.13
32330;BME280;18807;52.434;13.238;2022-10-16T17:00:46;101534.00;;;15.70;96.51
32330;BME280;18807;52.434;13.238;2022-10-16T17:08:28;101539.28;;;15.58;96.85
32330;BME280;18807;52.434;13.238;2022-10-16T17:16:06;101544.56;;;15.38;98.30
32330;BME280;18807;52.434;13.238;2022-10-16T17:23:39;101552.47;;;15.22;100.00
32330;BME280;18807;52.434;13.238;2022-10-16T17:31:16;101570.13;;;14.94;100.00
32330;BME280;18807;52.434;13.238;2022-10-16T17:38:51;101586.09;;;14.79;100.00
32330;BME280;18807;52.434;13.238;2022-10-16T17:46:26;101594.81;;;14.59;100.00
32330;BME280;18807;52.434;13.238;2022-10-16T17:54:01;101585.69;;;14.43;100.00
32330;BME280;18807;52.434;13.238;2022-10-16T18:01:38;101588.13;;;14.25;100.00
32330;BME280;18807;52.434;13.238;2022-10-16T18:09:15;101607.66;;;14.15;100.00
32330;BME280;18807;52.434;13.238;2022-10-16T18:16:51;101612.84;;;14.01;100.00
32330;BME280;18807;52.434;13.238;2022-10-16T18:24:25;101626.97;;;13.88;100.00
32330;BME280;18807;52.434;13.238;2022-10-16T18:32:00;101631.19;;;13.73;100.00
32330;BME280;18807;52.434;13.238;2022-10-16T18:39:34;101647.06;;;13.59;100.00
32330;BME280;18807;52.434;13.238;2022-10-16T18:47:09;101671.06;;;13.50;100.00
32330;BME280;18807;52.434;13.238;2022-10-16T18:54:43;101678.88;;;13.37;100.00
32330;BME280;18807;52.434;13.238;2022-10-16T19:02:18;101664.34;;;13.24;100.00
32330;BME280;18807;52.434;13.238;2022-10-16T19:09:52;101662.38;;;13.14;100.00
32330;BME280;18807;52.434;13.238;2022-10-16T19:17:27;101671.19;;;13.09;100.00
32330;BME280;18807;52.434;13.238;2022-10-16T19:25:02;101662.97;;;13.01;100.00
32330;BME280;18807;52.434;13.238;2022-10-16T19:32:37;101681.66;;;12.98;100.00
32330;BME280;18807;52.434;13.238;2022-10-16T19:40:11;101670.03;;;12.98;100.00
32330;BME280;18807;52.434;13.238;2022-10-16T19:47:46;101690.47;;;12.91;100.00
32330;BME280;18807;52.434;13.238;2022-10-16T19:55:20;101692.13;;;12.86;100.00
32330;BME280;18807;52.434;13.238;2022-10-16T20:02:55;101713.47;;;12.79;100.00
32330;BME280;18807;52.434;13.238;2022-10-16T20:10:29;101707.03;;;12.72;100.00
32330;BME280;18807;52.434;13.238;2022-10-16T20:18:05;101737.31;;;12.67;100.00
32330;BME280;18807;52.434;13.238;2022-10-16T20:25:41;101752.31;;;12.59;100.00
32330;BME280;18807;52.434;13.238;2022-10-16T20:33:16;101756.63;;;12.52;100.00
32330;BME280;18807;52.434;13.238;2022-10-16T20:40:50;101761.97;;;12.52;100.00
32330;BME280;18807;52.434;13.238;2022-10-16T20:48:26;101762.78;;;12.48;100.00
32330;BME280;18807;52.434;13.238;2022-10-16T20:55:59;101752.00;;;12.45;100.00
32330;BME280;18807;52.434;13.238;2022-10-16T21:03:35;101755.50;;;12.43;100.00
32330;BME280;18807;52.434;13.238;2022-10-16T21:11:11;101757.25;;;12.41;100.00
32330;BME280;18807;52.434;13.238;2022-10-16T21:18:47;101768.84;;;12.40;100.00
32330;BME280;18807;52.434;13.238;2022-10-16T21:26:21;101783.94;;;12.36;100.00
32330;BME280;18807;52.434;13.238;2022-10-16T21:33:59;101783.09;;;12.37;100.00
32330;BME280;18807;52.434;13.238;2022-10-16T21:41:34;101791.09;;;12.36;100.00
32330;BME280;18807;52.434;13.238;2022-10-16T21:49:12;101810.66;;;12.33;100.00
32330;BME280;18807;52.434;13.238;2022-10-16T21:56:46;101809.75;;;12.33;100.00
32330;BME280;18807;52.434;13.238;2022-10-16T22:04:21;101793.69;;;12.33;100.00
32330;BME280;18807;52.434;13.238;2022-10-16T22:11:55;101819.44;;;12.28;100.00
32330;BME280;18807;52.434;13.238;2022-10-16T22:19:30;101810.38;;;12.23;100.00
32330;BME280;18807;52.434;13.238;2022-10-16T22:27:03;101803.06;;;12.16;100.00
32330;BME280;18807;52.434;13.238;2022-10-16T22:34:39;101804.75;;;12.12;100.00
32330;BME280;18807;52.434;13.238;2022-10-16T22:42:12;101803.81;;;12.10;100.00
32330;BME280;18807;52.434;13.238;2022-10-16T22:49:47;101818.06;;;12.07;100.00
32330;BME280;18807;52.434;13.238;2022-10-16T22:57:21;101808.22;;;12.08;100.00
32330;BME280;18807;52.434;13.238;2022-10-16T23:04:56;101812.75;;;12.10;100.00
32330;BME280;18807;52.434;13.238;2022-10-16T23:12:30;101813.69;;;12.13;100.00
32330;BME280;18807;52.434;13.238;2022-10-16T23:20:06;101815.53;;;12.15;100.00
32330;BME280;18807;52.434;13.238;2022-10-16T23:27:40;101812.81;;;12.13;100.00
32330;BME280;18807;52.434;13.238;2022-10-16T23:35:15;101815.63;;;12.18;100.00
32330;BME280;18807;52.434;13.238;2022-10-16T23:42:48;101820.09;;;12.18;100.00
32330;BME280;18807;52.434;13.238;2022-10-16T23:50:26;101818.28;;;12.18;100.00
32330;BME280;18807;52.434;13.238;2022-10-16T23:58:01;101830.84;;;12.19;100.00
